Terminal Aerodrome Forecast
Issued by NWS

Home | Current Version | Previous Version | Text Only | Print | Product List | Glossary Off
Versions: 1 2 3 4 5 6 7 8 9 10 11 12 13 14 15 16 17

000
FTUS43 KBIS 240500
TAFDIK
TAF
KDIK 240540Z 2406/2506 26015KT P6SM SCT250
     FM241030 27014KT P6SM SCT070 BKN150
     FM241300 28016KT P6SM -RA OVC035
     FM241500 28018KT 3SM -RA BR OVC010
     FM241800 30020G30KT 5SM -RA BR OVC018
     FM250100 30018G28KT P6SM OVC025=

USA.gov is the U.S. government's official web portal to all federal, state and local government web resources and services.